sensor_id;sensor_type;location;lat;lon;timestamp;temperature;humidity
25342;DHT22;13298;48.792;9.154;2024-01-07T00:01:35;4.60;99.90
25342;DHT22;13298;48.792;9.154;2024-01-07T00:04:01;4.60;99.90
25342;DHT22;13298;48.792;9.154;2024-01-07T00:06:27;4.60;99.90
25342;DHT22;13298;48.792;9.154;2024-01-07T00:08:55;4.60;99.90
25342;DHT22;13298;48.792;9.154;2024-01-07T00:11:23;4.50;99.90
25342;DHT22;13298;48.792;9.154;2024-01-07T00:13:49;4.50;99.90
25342;DHT22;13298;48.792;9.154;2024-01-07T00:16:15;4.40;99.90
25342;DHT22;13298;48.792;9.154;2024-01-07T00:18:41;4.40;99.90
25342;DHT22;13298;48.792;9.154;2024-01-07T00:21:06;4.40;99.90
25342;DHT22;13298;48.792;9.154;2024-01-07T00:23:32;4.40;99.90
25342;DHT22;13298;48.792;9.154;2024-01-07T00:25:58;4.40;99.90
25342;DHT22;13298;48.792;9.154;2024-01-07T00:28:24;4.30;99.90
25342;DHT22;13298;48.792;9.154;2024-01-07T00:30:49;4.40;99.90
25342;DHT22;13298;48.792;9.154;2024-01-07T00:33:15;4.40;99.90
25342;DHT22;13298;48.792;9.154;2024-01-07T00:35:41;4.40;99.90
25342;DHT22;13298;48.792;9.154;2024-01-07T00:38:06;4.40;99.90
25342;DHT22;13298;48.792;9.154;2024-01-07T00:40:32;4.40;99.90
25342;DHT22;13298;48.792;9.154;2024-01-07T00:42:58;4.40;99.90
25342;DHT22;13298;48.792;9.154;2024-01-07T00:45:23;4.40;99.90
25342;DHT22;13298;48.792;9.154;2024-01-07T00:47:49;4.40;99.90
25342;DHT22;13298;48.792;9.154;2024-01-07T00:50:15;4.40;99.90
25342;DHT22;13298;48.792;9.154;2024-01-07T00:52:41;4.40;99.90
25342;DHT22;13298;48.792;9.154;2024-01-07T00:55:08;4.40;99.90
25342;DHT22;13298;48.792;9.154;2024-01-07T00:57:34;4.40;99.90
25342;DHT22;13298;48.792;9.154;2024-01-07T01:00:04;4.40;99.90
25342;DHT22;13298;48.792;9.154;2024-01-07T01:02:30;4.50;99.90
25342;DHT22;13298;48.792;9.154;2024-01-07T01:04:56;4.50;99.90
25342;DHT22;13298;48.792;9.154;2024-01-07T01:07:21;4.40;99.90
25342;DHT22;13298;48.792;9.154;2024-01-07T01:09:47;4.50;99.90
25342;DHT22;13298;48.792;9.154;2024-01-07T01:12:13;4.50;99.90
25342;DHT22;13298;48.792;9.154;2024-01-07T01:14:38;4.40;99.90
25342;DHT22;13298;48.792;9.154;2024-01-07T01:17:04;4.40;99.90
25342;DHT22;13298;48.792;9.154;2024-01-07T01:19:30;4.40;99.90
25342;DHT22;13298;48.792;9.154;2024-01-07T01:21:56;4.40;99.90
25342;DHT22;13298;48.792;9.154;2024-01-07T01:24:22;4.40;99.90
25342;DHT22;13298;48.792;9.154;2024-01-07T01:26:47;4.40;99.90
25342;DHT22;13298;48.792;9.154;2024-01-07T01:29:13;4.40;99.90
25342;DHT22;13298;48.792;9.154;2024-01-07T01:31:39;4.30;99.90
25342;DHT22;13298;48.792;9.154;2024-01-07T01:34:04;4.40;99.90
25342;DHT22;13298;48.792;9.154;2024-01-07T01:36:33;4.40;99.90
25342;DHT22;13298;48.792;9.154;2024-01-07T01:38:58;4.30;99.90
25342;DHT22;13298;48.792;9.154;2024-01-07T01:41:24;4.30;99.90
25342;DHT22;13298;48.792;9.154;2024-01-07T01:43:50;4.30;99.90
25342;DHT22;13298;48.792;9.154;2024-01-07T01:46:15;4.30;99.90
25342;DHT22;13298;48.792;9.154;2024-01-07T01:48:42;4.30;99.90
25342;DHT22;13298;48.792;9.154;2024-01-07T01:51:08;4.30;99.90
25342;DHT22;13298;48.792;9.154;2024-01-07T01:53:34;4.30;99.90
25342;DHT22;13298;48.792;9.154;2024-01-07T01:56:01;4.30;99.90
25342;DHT22;13298;48.792;9.154;2024-01-07T01:58:30;4.30;99.90
25342;DHT22;13298;48.792;9.154;2024-01-07T02:00:57;4.20;99.90
25342;DHT22;13298;48.792;9.154;2024-01-07T02:03:23;4.20;99.90
25342;DHT22;13298;48.792;9.154;2024-01-07T02:05:48;4.20;99.90
25342;DHT22;13298;48.792;9.154;2024-01-07T02:08:15;4.10;99.90
25342;DHT22;13298;48.792;9.154;2024-01-07T02:10:42;4.20;99.90
25342;DHT22;13298;48.792;9.154;2024-01-07T02:13:08;4.20;99.90
25342;DHT22;13298;48.792;9.154;2024-01-07T02:15:33;4.20;99.90
25342;DHT22;13298;48.792;9.154;2024-01-07T02:18:00;4.20;99.90
25342;DHT22;13298;48.792;9.154;2024-01-07T02:20:26;4.20;99.90
25342;DHT22;13298;48.792;9.154;2024-01-07T02:22:51;4.20;99.90
25342;DHT22;13298;48.792;9.154;2024-01-07T02:28:58;4.20;99.90
25342;DHT22;13298;48.792;9.154;2024-01-07T02:31:24;4.20;99.90
25342;DHT22;13298;48.792;9.154;2024-01-07T02:33:50;4.20;99.90
25342;DHT22;13298;48.792;9.154;2024-01-07T02:36:15;4.30;99.90
25342;DHT22;13298;48.792;9.154;2024-01-07T02:38:41;4.30;99.90
25342;DHT22;13298;48.792;9.154;2024-01-07T02:41:07;4.30;99.90
25342;DHT22;13298;48.792;9.154;2024-01-07T02:43:33;4.30;99.90
25342;DHT22;13298;48.792;9.154;2024-01-07T02:45:58;4.40;99.90
25342;DHT22;13298;48.792;9.154;2024-01-07T02:48:24;4.30;99.90
25342;DHT22;13298;48.792;9.154;2024-01-07T02:50:50;4.30;99.90
25342;DHT22;13298;48.792;9.154;2024-01-07T02:53:15;4.30;99.90
25342;DHT22;13298;48.792;9.154;2024-01-07T02:55:41;4.30;99.90
25342;DHT22;13298;48.792;9.154;2024-01-07T02:58:07;4.30;99.90
25342;DHT22;13298;48.792;9.154;2024-01-07T03:00:32;4.30;99.90
25342;DHT22;13298;48.792;9.154;2024-01-07T03:02:58;4.30;99.90
25342;DHT22;13298;48.792;9.154;2024-01-07T03:05:24;4.30;99.90
25342;DHT22;13298;48.792;9.154;2024-01-07T03:07:50;4.30;99.90
25342;DHT22;13298;48.792;9.154;2024-01-07T03:10:16;4.30;99.90
25342;DHT22;13298;48.792;9.154;2024-01-07T03:12:41;4.30;99.90
25342;DHT22;13298;48.792;9.154;2024-01-07T03:15:07;4.30;99.90
25342;DHT22;13298;48.792;9.154;2024-01-07T03:17:34;4.30;99.90
25342;DHT22;13298;48.792;9.154;2024-01-07T03:19:59;4.40;99.90
25342;DHT22;13298;48.792;9.154;2024-01-07T03:22:25;4.40;99.90
25342;DHT22;13298;48.792;9.154;2024-01-07T03:24:51;4.40;99.90
25342;DHT22;13298;48.792;9.154;2024-01-07T03:27:16;4.40;99.90
25342;DHT22;13298;48.792;9.154;2024-01-07T03:29:42;4.40;99.90
25342;DHT22;13298;48.792;9.154;2024-01-07T03:32:08;4.30;99.90
25342;DHT22;13298;48.792;9.154;2024-01-07T03:34:33;4.30;99.90
25342;DHT22;13298;48.792;9.154;2024-01-07T03:36:59;4.30;99.90
25342;DHT22;13298;48.792;9.154;2024-01-07T03:39:25;4.30;99.90
25342;DHT22;13298;48.792;9.154;2024-01-07T03:41:55;4.30;99.90
25342;DHT22;13298;48.792;9.154;2024-01-07T03:44:21;4.30;99.90
25342;DHT22;13298;48.792;9.154;2024-01-07T03:46:46;4.30;99.90
25342;DHT22;13298;48.792;9.154;2024-01-07T03:49:12;4.30;99.90
25342;DHT22;13298;48.792;9.154;2024-01-07T03:51:38;4.30;99.90
25342;DHT22;13298;48.792;9.154;2024-01-07T03:54:03;4.30;99.90
25342;DHT22;13298;48.792;9.154;2024-01-07T03:56:29;4.30;99.90
25342;DHT22;13298;48.792;9.154;2024-01-07T03:58:55;4.30;99.90
25342;DHT22;13298;48.792;9.154;2024-01-07T04:01:20;4.30;99.90
25342;DHT22;13298;48.792;9.154;2024-01-07T04:03:46;4.30;99.90
25342;DHT22;13298;48.792;9.154;2024-01-07T04:06:12;4.20;99.90
25342;DHT22;13298;48.792;9.154;2024-01-07T04:08:37;4.20;99.90
25342;DHT22;13298;48.792;9.154;2024-01-07T04:11:03;4.20;99.90
25342;DHT22;13298;48.792;9.154;2024-01-07T04:13:29;4.20;99.90
25342;DHT22;13298;48.792;9.154;2024-01-07T04:15:55;4.20;99.90
25342;DHT22;13298;48.792;9.154;2024-01-07T04:18:20;4.20;99.90
25342;DHT22;13298;48.792;9.154;2024-01-07T04:20:46;4.20;99.90
25342;DHT22;13298;48.792;9.154;2024-01-07T04:23:12;4.20;99.90
25342;DHT22;13298;48.792;9.154;2024-01-07T04:25:37;4.20;99.90
25342;DHT22;13298;48.792;9.154;2024-01-07T04:28:04;4.20;99.90
25342;DHT22;13298;48.792;9.154;2024-01-07T04:30:30;4.20;99.90
25342;DHT22;13298;48.792;9.154;2024-01-07T04:32:55;4.20;99.90
25342;DHT22;13298;48.792;9.154;2024-01-07T04:35:21;4.20;99.90
25342;DHT22;13298;48.792;9.154;2024-01-07T04:37:47;4.20;99.90
25342;DHT22;13298;48.792;9.154;2024-01-07T04:40:12;4.20;99.90
25342;DHT22;13298;48.792;9.154;2024-01-07T04:42:38;4.20;99.90
25342;DHT22;13298;48.792;9.154;2024-01-07T04:45:04;4.20;99.90
25342;DHT22;13298;48.792;9.154;2024-01-07T04:47:32;4.20;99.90
25342;DHT22;13298;48.792;9.154;2024-01-07T04:50:01;4.20;99.90
25342;DHT22;13298;48.792;9.154;2024-01-07T04:52:28;4.20;99.90
25342;DHT22;13298;48.792;9.154;2024-01-07T04:54:54;4.20;99.90
25342;DHT22;13298;48.792;9.154;2024-01-07T04:57:21;4.20;99.90
25342;DHT22;13298;48.792;9.154;2024-01-07T04:59:48;4.20;99.90
25342;DHT22;13298;48.792;9.154;2024-01-07T05:02:15;4.20;99.90
25342;DHT22;13298;48.792;9.154;2024-01-07T05:04:41;4.20;99.90
25342;DHT22;13298;48.792;9.154;2024-01-07T05:07:07;4.20;99.90
25342;DHT22;13298;48.792;9.154;2024-01-07T05:09:33;4.20;99.90
25342;DHT22;13298;48.792;9.154;2024-01-07T05:11:59;4.20;99.90
25342;DHT22;13298;48.792;9.154;2024-01-07T05:14:25;4.10;99.90
25342;DHT22;13298;48.792;9.154;2024-01-07T05:16:51;4.10;99.90
25342;DHT22;13298;48.792;9.154;2024-01-07T05:19:18;4.00;99.90
25342;DHT22;13298;48.792;9.154;2024-01-07T05:21:44;4.00;99.90
25342;DHT22;13298;48.792;9.154;2024-01-07T05:24:09;4.00;99.90
25342;DHT22;13298;48.792;9.154;2024-01-07T05:26:43;4.00;99.90
25342;DHT22;13298;48.792;9.154;2024-01-07T05:29:09;4.00;99.90
25342;DHT22;13298;48.792;9.154;2024-01-07T05:31:34;4.00;99.90
25342;DHT22;13298;48.792;9.154;2024-01-07T05:34:00;4.00;99.90
25342;DHT22;13298;48.792;9.154;2024-01-07T05:36:26;4.10;99.90
25342;DHT22;13298;48.792;9.154;2024-01-07T05:38:52;4.10;99.90
25342;DHT22;13298;48.792;9.154;2024-01-07T05:41:17;4.10;99.90
25342;DHT22;13298;48.792;9.154;2024-01-07T05:43:43;4.10;99.90
25342;DHT22;13298;48.792;9.154;2024-01-07T05:46:09;4.10;99.90
25342;DHT22;13298;48.792;9.154;2024-01-07T05:48:43;4.10;99.90
25342;DHT22;13298;48.792;9.154;2024-01-07T05:51:13;4.10;99.90
25342;DHT22;13298;48.792;9.154;2024-01-07T05:53:40;4.10;99.90
25342;DHT22;13298;48.792;9.154;2024-01-07T05:56:06;4.10;99.90
25342;DHT22;13298;48.792;9.154;2024-01-07T05:58:32;4.10;99.90
25342;DHT22;13298;48.792;9.154;2024-01-07T06:00:58;4.10;99.90
25342;DHT22;13298;48.792;9.154;2024-01-07T06:03:23;4.10;99.90
25342;DHT22;13298;48.792;9.154;2024-01-07T06:05:49;4.00;99.90
25342;DHT22;13298;48.792;9.154;2024-01-07T06:08:15;4.00;99.90
25342;DHT22;13298;48.792;9.154;2024-01-07T06:10:41;4.00;99.90
25342;DHT22;13298;48.792;9.154;2024-01-07T06:13:07;4.00;99.90
25342;DHT22;13298;48.792;9.154;2024-01-07T06:15:32;4.00;99.90
25342;DHT22;13298;48.792;9.154;2024-01-07T06:17:58;4.00;99.90
25342;DHT22;13298;48.792;9.154;2024-01-07T06:20:24;4.00;99.90
25342;DHT22;13298;48.792;9.154;2024-01-07T06:22:49;3.90;99.90
25342;DHT22;13298;48.792;9.154;2024-01-07T06:25:16;4.00;99.90
25342;DHT22;13298;48.792;9.154;2024-01-07T06:27:42;3.90;99.90
25342;DHT22;13298;48.792;9.154;2024-01-07T06:30:08;3.90;99.90
25342;DHT22;13298;48.792;9.154;2024-01-07T06:32:34;3.90;99.90
25342;DHT22;13298;48.792;9.154;2024-01-07T06:35:01;3.90;99.90
25342;DHT22;13298;48.792;9.154;2024-01-07T06:37:28;3.90;99.90
25342;DHT22;13298;48.792;9.154;2024-01-07T06:39:55;3.90;99.90
25342;DHT22;13298;48.792;9.154;2024-01-07T06:42:22;3.90;99.90
25342;DHT22;13298;48.792;9.154;2024-01-07T06:44:47;3.90;99.90
25342;DHT22;13298;48.792;9.154;2024-01-07T06:47:13;3.90;99.90
25342;DHT22;13298;48.792;9.154;2024-01-07T06:49:40;3.90;99.90
25342;DHT22;13298;48.792;9.154;2024-01-07T06:52:06;3.90;99.90
25342;DHT22;13298;48.792;9.154;2024-01-07T06:54:31;4.00;99.90
25342;DHT22;13298;48.792;9.154;2024-01-07T06:56:57;4.00;99.90
25342;DHT22;13298;48.792;9.154;2024-01-07T06:59:23;4.00;99.90
25342;DHT22;13298;48.792;9.154;2024-01-07T07:01:48;3.90;99.90
25342;DHT22;13298;48.792;9.154;2024-01-07T07:04:14;3.90;99.90
25342;DHT22;13298;48.792;9.154;2024-01-07T07:06:40;3.90;99.90
25342;DHT22;13298;48.792;9.154;2024-01-07T07:09:05;3.90;99.90
25342;DHT22;13298;48.792;9.154;2024-01-07T07:11:32;3.90;99.90
25342;DHT22;13298;48.792;9.154;2024-01-07T07:13:58;3.90;99.90
25342;DHT22;13298;48.792;9.154;2024-01-07T07:16:24;3.90;99.90
25342;DHT22;13298;48.792;9.154;2024-01-07T07:18:51;3.90;99.90
25342;DHT22;13298;48.792;9.154;2024-01-07T07:21:19;3.90;99.90
25342;DHT22;13298;48.792;9.154;2024-01-07T07:23:45;3.90;99.90
25342;DHT22;13298;48.792;9.154;2024-01-07T07:26:11;3.80;99.90
25342;DHT22;13298;48.792;9.154;2024-01-07T07:28:36;3.80;99.90
25342;DHT22;13298;48.792;9.154;2024-01-07T07:31:02;3.80;99.90
25342;DHT22;13298;48.792;9.154;2024-01-07T07:33:28;3.80;99.90
25342;DHT22;13298;48.792;9.154;2024-01-07T07:35:53;3.80;99.90
25342;DHT22;13298;48.792;9.154;2024-01-07T07:38:19;3.80;99.90
25342;DHT22;13298;48.792;9.154;2024-01-07T07:40:45;3.70;99.90
25342;DHT22;13298;48.792;9.154;2024-01-07T07:43:18;3.80;99.90
25342;DHT22;13298;48.792;9.154;2024-01-07T07:45:44;3.80;99.90
25342;DHT22;13298;48.792;9.154;2024-01-07T07:48:10;3.80;99.90
25342;DHT22;13298;48.792;9.154;2024-01-07T07:50:36;3.70;99.90
25342;DHT22;13298;48.792;9.154;2024-01-07T07:53:01;3.70;99.90
25342;DHT22;13298;48.792;9.154;2024-01-07T07:55:28;3.60;99.90
25342;DHT22;13298;48.792;9.154;2024-01-07T07:57:54;3.60;99.90
25342;DHT22;13298;48.792;9.154;2024-01-07T08:00:19;3.60;99.90
25342;DHT22;13298;48.792;9.154;2024-01-07T08:02:45;3.60;99.90
25342;DHT22;13298;48.792;9.154;2024-01-07T08:05:11;3.60;99.90
25342;DHT22;13298;48.792;9.154;2024-01-07T08:07:37;3.50;99.90
25342;DHT22;13298;48.792;9.154;2024-01-07T08:10:03;3.50;99.90
25342;DHT22;13298;48.792;9.154;2024-01-07T08:12:29;3.50;99.90
25342;DHT22;13298;48.792;9.154;2024-01-07T08:14:54;3.50;99.90
25342;DHT22;13298;48.792;9.154;2024-01-07T08:17:20;3.40;99.90
25342;DHT22;13298;48.792;9.154;2024-01-07T08:19:46;3.50;99.90
25342;DHT22;13298;48.792;9.154;2024-01-07T08:22:11;3.50;99.90
25342;DHT22;13298;48.792;9.154;2024-01-07T08:24:37;3.40;99.90
25342;DHT22;13298;48.792;9.154;2024-01-07T08:27:04;3.50;99.90
25342;DHT22;13298;48.792;9.154;2024-01-07T08:29:29;3.50;99.90
25342;DHT22;13298;48.792;9.154;2024-01-07T08:31:55;3.50;99.90
25342;DHT22;13298;48.792;9.154;2024-01-07T08:34:21;3.50;99.90
25342;DHT22;13298;48.792;9.154;2024-01-07T08:36:46;3.40;99.90
25342;DHT22;13298;48.792;9.154;2024-01-07T08:39:15;3.40;99.90
25342;DHT22;13298;48.792;9.154;2024-01-07T08:41:41;3.40;99.90
25342;DHT22;13298;48.792;9.154;2024-01-07T08:44:07;3.40;99.90
25342;DHT22;13298;48.792;9.154;2024-01-07T08:46:34;3.40;99.90
25342;DHT22;13298;48.792;9.154;2024-01-07T08:49:00;3.40;99.90
25342;DHT22;13298;48.792;9.154;2024-01-07T08:51:25;3.40;99.90
25342;DHT22;13298;48.792;9.154;2024-01-07T08:53:51;3.40;99.90
25342;DHT22;13298;48.792;9.154;2024-01-07T08:56:16;3.40;99.90
25342;DHT22;13298;48.792;9.154;2024-01-07T08:58:42;3.40;99.90
25342;DHT22;13298;48.792;9.154;2024-01-07T09:01:08;3.40;99.90
25342;DHT22;13298;48.792;9.154;2024-01-07T09:03:34;3.40;99.90
25342;DHT22;13298;48.792;9.154;2024-01-07T09:06:00;3.40;99.90
25342;DHT22;13298;48.792;9.154;2024-01-07T09:08:25;3.40;99.90
25342;DHT22;13298;48.792;9.154;2024-01-07T09:10:51;3.50;99.90
25342;DHT22;13298;48.792;9.154;2024-01-07T09:13:17;3.50;99.90
25342;DHT22;13298;48.792;9.154;2024-01-07T09:15:43;3.60;99.90
25342;DHT22;13298;48.792;9.154;2024-01-07T09:18:08;3.60;99.90
25342;DHT22;13298;48.792;9.154;2024-01-07T09:20:34;3.70;99.90
25342;DHT22;13298;48.792;9.154;2024-01-07T09:23:00;3.70;99.90
25342;DHT22;13298;48.792;9.154;2024-01-07T09:25:25;3.80;99.90
25342;DHT22;13298;48.792;9.154;2024-01-07T09:27:51;3.80;99.90
25342;DHT22;13298;48.792;9.154;2024-01-07T09:30:17;3.80;99.90
25342;DHT22;13298;48.792;9.154;2024-01-07T09:32:43;3.90;99.90
25342;DHT22;13298;48.792;9.154;2024-01-07T09:35:09;3.90;99.90
25342;DHT22;13298;48.792;9.154;2024-01-07T09:37:35;3.90;99.90
25342;DHT22;13298;48.792;9.154;2024-01-07T09:40:02;4.00;99.90
25342;DHT22;13298;48.792;9.154;2024-01-07T09:42:29;4.00;99.90
25342;DHT22;13298;48.792;9.154;2024-01-07T09:44:56;4.10;99.90
25342;DHT22;13298;48.792;9.154;2024-01-07T09:47:21;4.10;99.90
25342;DHT22;13298;48.792;9.154;2024-01-07T09:49:49;4.10;99.90
25342;DHT22;13298;48.792;9.154;2024-01-07T09:52:14;4.10;99.90
25342;DHT22;13298;48.792;9.154;2024-01-07T09:54:41;4.10;99.90
25342;DHT22;13298;48.792;9.154;2024-01-07T09:57:08;4.10;99.90
25342;DHT22;13298;48.792;9.154;2024-01-07T09:59:35;4.00;99.90
25342;DHT22;13298;48.792;9.154;2024-01-07T10:02:02;4.00;99.90
25342;DHT22;13298;48.792;9.154;2024-01-07T10:04:29;3.90;99.90
25342;DHT22;13298;48.792;9.154;2024-01-07T10:06:55;3.80;99.90
25342;DHT22;13298;48.792;9.154;2024-01-07T10:09:30;3.80;99.90
25342;DHT22;13298;48.792;9.154;2024-01-07T10:11:58;3.70;99.90
25342;DHT22;13298;48.792;9.154;2024-01-07T10:14:24;3.70;99.90
25342;DHT22;13298;48.792;9.154;2024-01-07T10:16:51;3.60;99.90
25342;DHT22;13298;48.792;9.154;2024-01-07T10:19:21;3.60;99.90
25342;DHT22;13298;48.792;9.154;2024-01-07T10:22:01;3.60;99.90
25342;DHT22;13298;48.792;9.154;2024-01-07T10:24:39;3.50;99.90
25342;DHT22;13298;48.792;9.154;2024-01-07T10:27:06;3.50;99.90
25342;DHT22;13298;48.792;9.154;2024-01-07T10:29:33;3.50;99.90
25342;DHT22;13298;48.792;9.154;2024-01-07T10:32:00;3.50;99.90
25342;DHT22;13298;48.792;9.154;2024-01-07T10:34:34;3.50;99.90
25342;DHT22;13298;48.792;9.154;2024-01-07T10:37:02;3.50;99.90
25342;DHT22;13298;48.792;9.154;2024-01-07T10:39:30;3.50;99.90
25342;DHT22;13298;48.792;9.154;2024-01-07T10:41:56;3.50;99.90
25342;DHT22;13298;48.792;9.154;2024-01-07T10:44:27;3.50;99.90
25342;DHT22;13298;48.792;9.154;2024-01-07T10:46:54;3.50;99.90
25342;DHT22;13298;48.792;9.154;2024-01-07T10:49:22;3.40;99.90
25342;DHT22;13298;48.792;9.154;2024-01-07T10:52:11;3.50;99.90
25342;DHT22;13298;48.792;9.154;2024-01-07T10:54:39;3.40;99.90
25342;DHT22;13298;48.792;9.154;2024-01-07T10:59:45;3.40;99.90
25342;DHT22;13298;48.792;9.154;2024-01-07T11:02:12;3.40;99.90
25342;DHT22;13298;48.792;9.154;2024-01-07T11:05:05;3.40;99.90
25342;DHT22;13298;48.792;9.154;2024-01-07T11:07:48;3.40;99.90
25342;DHT22;13298;48.792;9.154;2024-01-07T11:10:37;3.30;99.90
25342;DHT22;13298;48.792;9.154;2024-01-07T11:13:05;3.30;99.90
25342;DHT22;13298;48.792;9.154;2024-01-07T11:18:21;3.20;99.90
25342;DHT22;13298;48.792;9.154;2024-01-07T11:20:49;3.20;99.90
25342;DHT22;13298;48.792;9.154;2024-01-07T11:23:31;3.20;99.90
25342;DHT22;13298;48.792;9.154;2024-01-07T11:26:02;3.20;99.90
25342;DHT22;13298;48.792;9.154;2024-01-07T11:34:05;3.20;99.90
25342;DHT22;13298;48.792;9.154;2024-01-07T11:36:35;3.10;99.90
25342;DHT22;13298;48.792;9.154;2024-01-07T11:39:01;3.20;99.90
25342;DHT22;13298;48.792;9.154;2024-01-07T11:41:33;3.20;99.90
25342;DHT22;13298;48.792;9.154;2024-01-07T11:44:00;3.10;99.90
25342;DHT22;13298;48.792;9.154;2024-01-07T11:46:26;3.10;99.90
25342;DHT22;13298;48.792;9.154;2024-01-07T11:48:54;3.10;99.90
25342;DHT22;13298;48.792;9.154;2024-01-07T11:51:27;3.10;99.90
25342;DHT22;13298;48.792;9.154;2024-01-07T11:53:54;3.10;99.90
25342;DHT22;13298;48.792;9.154;2024-01-07T11:56:20;3.00;99.90
25342;DHT22;13298;48.792;9.154;2024-01-07T11:58:46;3.00;99.90
25342;DHT22;13298;48.792;9.154;2024-01-07T12:01:11;3.00;99.90
25342;DHT22;13298;48.792;9.154;2024-01-07T12:03:40;3.00;99.90
25342;DHT22;13298;48.792;9.154;2024-01-07T12:06:06;2.90;99.90
25342;DHT22;13298;48.792;9.154;2024-01-07T12:08:32;2.90;99.90
25342;DHT22;13298;48.792;9.154;2024-01-07T12:10:59;2.80;99.90
25342;DHT22;13298;48.792;9.154;2024-01-07T12:13:25;2.80;99.90
25342;DHT22;13298;48.792;9.154;2024-01-07T12:15:51;2.80;99.90
25342;DHT22;13298;48.792;9.154;2024-01-07T12:18:17;2.80;99.90
25342;DHT22;13298;48.792;9.154;2024-01-07T12:20:57;2.80;99.90
25342;DHT22;13298;48.792;9.154;2024-01-07T12:23:25;2.90;99.90
25342;DHT22;13298;48.792;9.154;2024-01-07T12:25:52;2.80;99.90
25342;DHT22;13298;48.792;9.154;2024-01-07T12:28:18;2.80;99.90
25342;DHT22;13298;48.792;9.154;2024-01-07T12:30:44;2.80;99.90
25342;DHT22;13298;48.792;9.154;2024-01-07T12:33:11;2.80;99.90
25342;DHT22;13298;48.792;9.154;2024-01-07T12:35:36;2.70;99.90
25342;DHT22;13298;48.792;9.154;2024-01-07T12:38:03;2.70;99.90
25342;DHT22;13298;48.792;9.154;2024-01-07T12:40:30;2.70;99.90
25342;DHT22;13298;48.792;9.154;2024-01-07T12:42:55;2.70;99.90
25342;DHT22;13298;48.792;9.154;2024-01-07T12:45:22;2.60;99.90
25342;DHT22;13298;48.792;9.154;2024-01-07T12:47:48;2.60;99.90
25342;DHT22;13298;48.792;9.154;2024-01-07T12:50:14;2.60;99.90
25342;DHT22;13298;48.792;9.154;2024-01-07T12:52:41;2.50;99.90
25342;DHT22;13298;48.792;9.154;2024-01-07T12:55:07;2.50;99.90
25342;DHT22;13298;48.792;9.154;2024-01-07T12:57:34;2.40;99.90
25342;DHT22;13298;48.792;9.154;2024-01-07T12:59:59;2.50;99.90
25342;DHT22;13298;48.792;9.154;2024-01-07T13:02:25;2.40;99.90
25342;DHT22;13298;48.792;9.154;2024-01-07T13:04:51;2.30;99.90
25342;DHT22;13298;48.792;9.154;2024-01-07T13:07:17;2.30;99.90
25342;DHT22;13298;48.792;9.154;2024-01-07T13:09:43;2.30;99.90
25342;DHT22;13298;48.792;9.154;2024-01-07T13:12:10;2.30;99.90
25342;DHT22;13298;48.792;9.154;2024-01-07T13:14:36;2.20;99.90
25342;DHT22;13298;48.792;9.154;2024-01-07T13:17:02;2.20;99.90
25342;DHT22;13298;48.792;9.154;2024-01-07T13:19:28;2.10;99.90
25342;DHT22;13298;48.792;9.154;2024-01-07T13:21:55;2.10;99.90
25342;DHT22;13298;48.792;9.154;2024-01-07T13:24:23;2.10;99.90
25342;DHT22;13298;48.792;9.154;2024-01-07T13:26:49;2.10;99.90
25342;DHT22;13298;48.792;9.154;2024-01-07T13:29:15;2.00;99.90
25342;DHT22;13298;48.792;9.154;2024-01-07T13:31:40;2.00;99.90
25342;DHT22;13298;48.792;9.154;2024-01-07T13:34:06;2.00;99.90
25342;DHT22;13298;48.792;9.154;2024-01-07T13:36:32;2.00;99.90
25342;DHT22;13298;48.792;9.154;2024-01-07T13:38:58;1.90;99.90
25342;DHT22;13298;48.792;9.154;2024-01-07T13:41:23;1.90;99.90
25342;DHT22;13298;48.792;9.154;2024-01-07T13:43:49;1.90;99.90
25342;DHT22;13298;48.792;9.154;2024-01-07T13:46:15;1.90;99.90
25342;DHT22;13298;48.792;9.154;2024-01-07T13:48:41;1.90;99.90
25342;DHT22;13298;48.792;9.154;2024-01-07T13:51:09;1.80;99.90
25342;DHT22;13298;48.792;9.154;2024-01-07T13:53:35;1.80;99.90
25342;DHT22;13298;48.792;9.154;2024-01-07T13:56:00;1.70;99.90
25342;DHT22;13298;48.792;9.154;2024-01-07T13:58:26;1.70;99.90
25342;DHT22;13298;48.792;9.154;2024-01-07T14:00:52;1.70;99.90
25342;DHT22;13298;48.792;9.154;2024-01-07T14:03:17;1.70;99.90
25342;DHT22;13298;48.792;9.154;2024-01-07T14:05:44;1.70;99.90
25342;DHT22;13298;48.792;9.154;2024-01-07T14:08:09;1.60;99.90
25342;DHT22;13298;48.792;9.154;2024-01-07T14:10:35;1.60;99.90
25342;DHT22;13298;48.792;9.154;2024-01-07T14:13:02;1.60;99.90
25342;DHT22;13298;48.792;9.154;2024-01-07T14:15:28;1.60;99.90
25342;DHT22;13298;48.792;9.154;2024-01-07T14:17:54;1.50;99.90
25342;DHT22;13298;48.792;9.154;2024-01-07T14:20:20;1.50;99.90
25342;DHT22;13298;48.792;9.154;2024-01-07T14:22:47;1.50;99.90
25342;DHT22;13298;48.792;9.154;2024-01-07T14:25:12;1.50;99.90
25342;DHT22;13298;48.792;9.154;2024-01-07T14:27:39;1.50;99.90
25342;DHT22;13298;48.792;9.154;2024-01-07T14:30:06;1.50;99.90
25342;DHT22;13298;48.792;9.154;2024-01-07T14:32:33;1.40;99.90
25342;DHT22;13298;48.792;9.154;2024-01-07T14:34:59;1.40;99.90
25342;DHT22;13298;48.792;9.154;2024-01-07T14:37:25;1.40;99.90
25342;DHT22;13298;48.792;9.154;2024-01-07T14:39:53;1.30;99.90
25342;DHT22;13298;48.792;9.154;2024-01-07T14:42:18;1.30;99.90
25342;DHT22;13298;48.792;9.154;2024-01-07T14:44:44;1.30;99.90
25342;DHT22;13298;48.792;9.154;2024-01-07T14:47:10;1.30;99.90
25342;DHT22;13298;48.792;9.154;2024-01-07T14:49:35;1.20;99.90
25342;DHT22;13298;48.792;9.154;2024-01-07T14:52:01;1.20;99.90
25342;DHT22;13298;48.792;9.154;2024-01-07T14:54:27;1.20;99.90
25342;DHT22;13298;48.792;9.154;2024-01-07T14:56:52;1.20;99.90
25342;DHT22;13298;48.792;9.154;2024-01-07T14:59:19;1.20;99.90
25342;DHT22;13298;48.792;9.154;2024-01-07T15:01:44;1.10;99.90
25342;DHT22;13298;48.792;9.154;2024-01-07T15:04:10;1.10;99.90
25342;DHT22;13298;48.792;9.154;2024-01-07T15:06:41;1.10;99.90
25342;DHT22;13298;48.792;9.154;2024-01-07T15:09:07;1.10;99.90
25342;DHT22;13298;48.792;9.154;2024-01-07T15:11:33;1.10;99.90
25342;DHT22;13298;48.792;9.154;2024-01-07T15:13:59;1.10;99.90
25342;DHT22;13298;48.792;9.154;2024-01-07T15:16:25;1.10;99.90
25342;DHT22;13298;48.792;9.154;2024-01-07T15:18:51;1.10;99.90
25342;DHT22;13298;48.792;9.154;2024-01-07T15:21:17;1.00;99.90
25342;DHT22;13298;48.792;9.154;2024-01-07T15:23:43;1.00;99.90
25342;DHT22;13298;48.792;9.154;2024-01-07T15:26:08;1.00;99.90
25342;DHT22;13298;48.792;9.154;2024-01-07T15:28:34;1.00;99.90
25342;DHT22;13298;48.792;9.154;2024-01-07T15:31:00;1.00;99.90
25342;DHT22;13298;48.792;9.154;2024-01-07T15:33:25;0.90;99.90
25342;DHT22;13298;48.792;9.154;2024-01-07T15:35:51;0.90;99.90
25342;DHT22;13298;48.792;9.154;2024-01-07T15:38:17;0.80;99.90
25342;DHT22;13298;48.792;9.154;2024-01-07T15:40:43;0.80;99.90
25342;DHT22;13298;48.792;9.154;2024-01-07T15:43:12;0.70;99.90
25342;DHT22;13298;48.792;9.154;2024-01-07T15:45:38;0.70;99.90
25342;DHT22;13298;48.792;9.154;2024-01-07T15:48:04;0.60;99.90
25342;DHT22;13298;48.792;9.154;2024-01-07T15:50:30;0.50;99.90
25342;DHT22;13298;48.792;9.154;2024-01-07T15:52:56;0.50;99.90
25342;DHT22;13298;48.792;9.154;2024-01-07T15:55:24;0.40;99.90